createdAt,value
2018-03-28T00:00:25.128Z,16.53
2018-03-28T00:02:55.124Z,15.87
2018-03-28T00:05:25.087Z,16.60
2018-03-28T00:07:55.221Z,17.63
2018-03-28T00:10:25.229Z,17.43
2018-03-28T00:12:54.460Z,17.50
2018-03-28T00:15:23.970Z,17.27
2018-03-28T00:17:53.166Z,16.63
2018-03-28T00:20:22.354Z,17.37
2018-03-28T00:22:51.526Z,18.83
2018-03-28T00:25:21.515Z,16.73
2018-03-28T00:27:50.779Z,18.97
2018-03-28T00:30:19.987Z,17.87
2018-03-28T00:32:49.337Z,18.50
2018-03-28T00:35:18.532Z,18.67
2018-03-28T00:37:47.728Z,19.10
2018-03-28T00:40:34.094Z,18.57
2018-03-28T00:43:03.376Z,18.13
2018-03-28T00:45:33.370Z,18.63
2018-03-28T00:48:03.346Z,20.67
2018-03-28T00:50:32.579Z,19.07
2018-03-28T00:53:01.814Z,19.13
2018-03-28T00:55:31.789Z,17.93
2018-03-28T00:58:01.104Z,18.47
2018-03-28T01:00:30.347Z,18.40
2018-03-28T01:02:59.631Z,19.53
2018-03-28T01:05:28.945Z,19.23
2018-03-28T01:07:58.254Z,20.83
2018-03-28T01:10:27.502Z,17.70
2018-03-28T01:12:57.547Z,19.13
2018-03-28T01:15:26.760Z,19.80
2018-03-28T01:17:56.771Z,19.77
2018-03-28T01:20:26.772Z,19.87
2018-03-28T01:22:56.078Z,19.07
2018-03-28T01:25:32.912Z,18.97
2018-03-28T01:28:02.901Z,17.67
2018-03-28T01:30:32.117Z,17.77
2018-03-28T01:33:01.342Z,18.77
2018-03-28T01:35:31.394Z,21.10
2018-03-28T01:38:01.362Z,17.87
2018-03-28T01:40:30.588Z,17.63
2018-03-28T01:42:59.831Z,19.80
2018-03-28T01:45:29.044Z,20.60
2018-03-28T01:47:59.053Z,20.97
2018-03-28T01:50:28.267Z,21.13
2018-03-28T01:52:57.454Z,19.53
2018-03-28T01:55:26.704Z,20.67
2018-03-28T01:57:55.921Z,19.73
2018-03-28T02:00:25.923Z,18.27
2018-03-28T02:02:55.128Z,20.23
2018-03-28T02:05:24.378Z,21.00
2018-03-28T02:07:57.028Z,19.13
2018-03-28T02:10:26.236Z,18.40
2018-03-28T02:12:55.417Z,18.53
2018-03-28T02:15:24.708Z,21.50
2018-03-28T02:17:54.002Z,21.43
2018-03-28T02:20:23.252Z,17.90
2018-03-28T02:22:52.474Z,20.07
2018-03-28T02:25:21.729Z,19.50
2018-03-28T02:27:51.016Z,21.50
2018-03-28T02:30:20.191Z,20.70
2018-03-28T02:32:49.417Z,20.70
2018-03-28T02:35:18.625Z,21.40
2018-03-28T02:37:47.963Z,19.13
2018-03-28T02:40:17.278Z,17.73
2018-03-28T02:42:46.589Z,21.00
2018-03-28T02:45:15.811Z,18.57
2018-03-28T02:47:45.115Z,20.40
2018-03-28T02:50:14.278Z,19.27
2018-03-28T02:52:44.350Z,19.50
2018-03-28T02:55:24.915Z,19.07
2018-03-28T02:57:54.254Z,22.23
2018-03-28T03:00:23.560Z,17.57
2018-03-28T03:02:52.803Z,22.20
2018-03-28T03:05:22.757Z,21.50
2018-03-28T03:07:52.010Z,21.03
2018-03-28T03:10:21.265Z,22.17
2018-03-28T03:12:51.353Z,21.37
2018-03-28T03:15:20.562Z,22.43
2018-03-28T03:17:49.876Z,21.03
2018-03-28T03:20:19.063Z,23.27
2018-03-28T03:22:48.293Z,21.90
2018-03-28T03:25:17.482Z,23.10
2018-03-28T03:27:46.825Z,22.00
2018-03-28T03:30:16.145Z,19.90
2018-03-28T03:32:45.290Z,21.67
2018-03-28T03:35:14.661Z,20.07
2018-03-28T03:37:54.978Z,22.03
2018-03-28T03:40:24.141Z,21.00
2018-03-28T03:42:53.435Z,20.37
2018-03-28T03:45:22.651Z,21.97
2018-03-28T03:47:51.880Z,21.63
2018-03-28T03:50:21.046Z,20.47
2018-03-28T03:52:50.353Z,21.63
2018-03-28T03:55:19.589Z,21.20
2018-03-28T03:57:48.812Z,23.03
2018-03-28T04:00:18.097Z,21.83
2018-03-28T04:02:47.325Z,21.67
2018-03-28T04:05:17.391Z,22.70
2018-03-28T04:07:46.593Z,22.03
2018-03-28T04:10:15.897Z,21.83
2018-03-28T04:12:45.135Z,20.93
2018-03-28T04:15:14.391Z,22.00
2018-03-28T04:17:43.587Z,21.30
2018-03-28T04:20:17.798Z,19.30
2018-03-28T04:22:47.175Z,19.60
2018-03-28T04:25:16.492Z,19.30
2018-03-28T04:27:45.725Z,22.17
2018-03-28T04:30:14.903Z,21.77
2018-03-28T04:32:44.223Z,22.60
2018-03-28T04:35:13.535Z,19.77
2018-03-28T04:37:42.751Z,21.83
2018-03-28T04:40:11.920Z,24.37
2018-03-28T04:42:41.871Z,23.30
2018-03-28T04:45:11.196Z,23.97
2018-03-28T04:47:40.462Z,23.00
2018-03-28T04:50:09.824Z,24.47
2018-03-28T04:52:39.134Z,22.77
2018-03-28T04:55:08.417Z,24.30
2018-03-28T04:57:47.759Z,23.57
2018-03-28T05:00:16.971Z,22.97
2018-03-28T05:02:46.960Z,23.57
2018-03-28T05:05:16.149Z,23.53
2018-03-28T05:07:45.464Z,23.40
2018-03-28T05:10:14.739Z,21.53
2018-03-28T05:12:44.065Z,20.80
2018-03-28T05:15:13.295Z,21.43
2018-03-28T05:17:42.773Z,21.50
2018-03-28T05:20:26.075Z,19.93
2018-03-28T05:25:59.667Z,21.17
2018-03-28T05:28:28.984Z,20.23
2018-03-28T05:31:00.197Z,20.63
2018-03-28T05:33:29.434Z,20.73
2018-03-28T05:35:58.599Z,19.77
2018-03-28T05:38:36.067Z,20.30
2018-03-28T05:41:05.314Z,22.07
2018-03-28T05:43:34.630Z,21.40
2018-03-28T05:46:03.895Z,22.73
2018-03-28T05:48:33.971Z,24.10
2018-03-28T05:51:04.106Z,22.67
2018-03-28T05:53:33.311Z,20.73
2018-03-28T05:56:02.476Z,20.37
2018-03-28T05:58:31.678Z,20.97
2018-03-28T06:01:00.949Z,20.97
2018-03-28T06:03:30.167Z,22.67
2018-03-28T06:05:59.426Z,20.37
2018-03-28T06:08:29.428Z,19.13
2018-03-28T06:10:58.655Z,18.73
2018-03-28T06:13:27.909Z,20.53
2018-03-28T06:15:57.160Z,20.57
2018-03-28T06:18:26.412Z,20.63
2018-03-28T06:20:55.637Z,18.73
2018-03-28T06:23:24.823Z,18.93
2018-03-28T06:25:54.834Z,18.80
2018-03-28T06:28:24.844Z,18.17
2018-03-28T06:30:54.858Z,16.27
2018-03-28T06:33:24.050Z,18.57
2018-03-28T06:35:53.310Z,18.60
2018-03-28T06:38:22.493Z,17.67
2018-03-28T06:40:51.761Z,15.47
2018-03-28T06:43:20.970Z,16.43
2018-03-28T06:45:50.961Z,16.20
2018-03-28T06:48:20.190Z,16.97
2018-03-28T06:50:49.394Z,15.90
2018-03-28T06:53:18.667Z,17.77
2018-03-28T06:55:47.980Z,16.77
2018-03-28T06:58:17.228Z,17.13
2018-03-28T07:00:47.219Z,15.37
2018-03-28T07:03:16.535Z,16.77
2018-03-28T07:05:45.761Z,17.77
2018-03-28T07:08:14.983Z,17.17
2018-03-28T07:10:45.714Z,15.27
2018-03-28T07:13:14.931Z,15.23
2018-03-28T07:15:44.915Z,16.43
2018-03-28T07:18:14.153Z,15.93
2018-03-28T07:20:43.398Z,14.90
2018-03-28T07:23:12.607Z,15.87
2018-03-28T07:25:41.755Z,13.07
2018-03-28T07:28:10.947Z,12.90
2018-03-28T07:30:41.036Z,13.70
2018-03-28T07:33:10.245Z,12.73
2018-03-28T07:35:39.478Z,13.30
2018-03-28T07:38:08.683Z,13.97
2018-03-28T07:40:37.932Z,14.77
2018-03-28T07:43:07.850Z,12.67
2018-03-28T07:45:38.044Z,12.53
2018-03-28T07:48:07.347Z,14.43
2018-03-28T07:50:36.579Z,13.60
2018-03-28T07:53:05.788Z,12.87
2018-03-28T07:55:34.988Z,13.90
2018-03-28T07:58:04.293Z,11.97
2018-03-28T08:00:33.480Z,11.77
2018-03-28T08:03:02.719Z,11.90
2018-03-28T08:05:31.877Z,9.90
2018-03-28T08:08:01.822Z,9.80
2018-03-28T08:10:31.073Z,10.17
2018-03-28T08:13:00.276Z,9.17
2018-03-28T08:15:29.590Z,8.53
2018-03-28T08:17:58.815Z,7.47
2018-03-28T08:20:28.113Z,6.93
2018-03-28T08:22:57.309Z,6.80
2018-03-28T08:25:26.480Z,6.27
2018-03-28T08:27:55.745Z,5.80
2018-03-28T08:30:24.920Z,6.10
2018-03-28T08:32:54.991Z,6.23
2018-03-28T08:35:24.928Z,6.30
2018-03-28T08:37:54.079Z,6.00
2018-03-28T08:40:24.050Z,6.07
2018-03-28T08:42:53.312Z,6.20
2018-03-28T08:45:23.271Z,6.80
2018-03-28T08:47:52.604Z,6.27
2018-03-28T08:50:21.815Z,5.93
2018-03-28T08:52:51.028Z,6.30
2018-03-28T08:55:20.231Z,5.43
2018-03-28T08:57:49.385Z,6.30
2018-03-28T09:00:19.371Z,6.03
2018-03-28T09:02:48.686Z,6.10
2018-03-28T09:05:17.999Z,5.83
2018-03-28T09:07:47.193Z,5.63
2018-03-28T09:10:16.427Z,6.13
2018-03-28T09:12:45.614Z,6.00
2018-03-28T09:15:14.817Z,6.40
2018-03-28T09:17:44.154Z,6.50
2018-03-28T09:20:13.356Z,6.37
2018-03-28T09:22:42.681Z,5.70
2018-03-28T09:25:11.992Z,6.70
2018-03-28T09:27:41.175Z,6.17
2018-03-28T09:30:10.414Z,6.40
2018-03-28T09:32:39.646Z,6.90
2018-03-28T09:35:08.857Z,6.37
2018-03-28T09:37:38.043Z,6.17
2018-03-28T09:40:07.460Z,5.73
2018-03-28T09:42:36.700Z,6.03
2018-03-28T09:45:06.661Z,6.20
2018-03-28T09:47:36.621Z,6.70
2018-03-28T09:50:05.871Z,6.93
2018-03-28T09:52:35.156Z,6.07
2018-03-28T09:55:04.380Z,6.40
2018-03-28T09:57:33.611Z,6.13
2018-03-28T10:00:03.547Z,6.43
2018-03-28T10:02:48.436Z,6.00
2018-03-28T10:05:18.394Z,6.20
2018-03-28T10:07:47.667Z,6.07
2018-03-28T10:10:16.851Z,6.00
2018-03-28T10:12:46.047Z,5.97
2018-03-28T10:15:15.269Z,6.30
2018-03-28T10:17:44.437Z,6.03
2018-03-28T10:20:13.668Z,5.33
2018-03-28T10:22:42.960Z,6.10
2018-03-28T10:25:12.918Z,5.80
2018-03-28T10:27:42.131Z,5.77
2018-03-28T10:30:11.315Z,5.07
2018-03-28T10:32:40.546Z,5.53
2018-03-28T10:35:09.761Z,5.50
2018-03-28T10:37:38.971Z,5.57
2018-03-28T10:40:08.180Z,5.40
2018-03-28T10:42:37.414Z,5.70
2018-03-28T10:45:06.606Z,5.67
2018-03-28T10:47:35.816Z,5.70
2018-03-28T10:50:05.016Z,4.87
2018-03-28T10:52:34.227Z,4.40
2018-03-28T10:55:03.528Z,4.70
2018-03-28T10:57:32.792Z,4.70
2018-03-28T11:00:01.984Z,5.00
2018-03-28T11:02:31.242Z,5.07
2018-03-28T11:05:00.474Z,5.27
2018-03-28T11:07:29.773Z,5.20
2018-03-28T11:09:59.473Z,4.80
2018-03-28T11:12:28.687Z,5.33
2018-03-28T11:14:58.658Z,5.00
2018-03-28T11:17:27.889Z,4.57
2018-03-28T11:19:57.111Z,4.87
2018-03-28T11:22:26.337Z,4.37
2018-03-28T11:24:55.561Z,4.30
2018-03-28T11:27:24.924Z,4.20
2018-03-28T11:29:54.187Z,4.03
2018-03-28T11:32:24.273Z,4.20
2018-03-28T11:34:53.504Z,4.47
2018-03-28T11:37:22.776Z,4.27
2018-03-28T11:39:51.959Z,4.20
2018-03-28T11:42:21.927Z,3.77
2018-03-28T11:44:51.111Z,4.20
2018-03-28T11:47:21.101Z,4.17
2018-03-28T11:49:51.114Z,4.50
2018-03-28T11:52:20.316Z,4.30
2018-03-28T11:54:49.567Z,4.40
2018-03-28T11:57:18.855Z,4.90
2018-03-28T11:59:48.035Z,4.30
2018-03-28T12:02:20.117Z,4.40
2018-03-28T12:04:49.328Z,4.87
2018-03-28T12:07:18.543Z,4.73
2018-03-28T12:09:47.822Z,5.00
2018-03-28T12:12:17.804Z,5.10
2018-03-28T12:14:47.092Z,4.73
2018-03-28T12:17:16.611Z,5.30
2018-03-28T12:19:45.761Z,5.13
2018-03-28T12:22:15.763Z,5.17
2018-03-28T12:24:44.978Z,4.83
2018-03-28T12:27:14.176Z,4.90
2018-03-28T12:29:43.453Z,5.50
2018-03-28T12:32:13.403Z,4.57
2018-03-28T12:34:42.625Z,4.60
2018-03-28T12:37:11.936Z,4.80
2018-03-28T12:39:41.207Z,4.90
2018-03-28T12:42:10.425Z,5.10
2018-03-28T12:44:40.379Z,4.93
2018-03-28T12:47:09.570Z,5.20
2018-03-28T12:49:38.876Z,5.13
2018-03-28T12:52:07.992Z,5.50
2018-03-28T12:54:37.969Z,5.13
2018-03-28T12:57:08.167Z,5.43
2018-03-28T12:59:37.364Z,5.50
2018-03-28T13:02:07.356Z,5.17
2018-03-28T13:04:37.265Z,4.87
2018-03-28T13:07:06.546Z,4.97
2018-03-28T13:09:35.718Z,5.00
2018-03-28T13:12:04.952Z,4.70
2018-03-28T13:14:34.197Z,4.63
2018-03-28T13:17:03.434Z,5.20
2018-03-28T13:19:32.572Z,5.63
2018-03-28T13:22:01.791Z,5.20
2018-03-28T13:24:31.739Z,5.77
2018-03-28T13:27:00.941Z,4.90
2018-03-28T13:29:30.915Z,5.37
2018-03-28T13:32:00.205Z,4.93
2018-03-28T13:34:29.352Z,4.93
2018-03-28T13:36:59.291Z,5.00
2018-03-28T13:39:28.553Z,4.53
2018-03-28T13:41:57.866Z,4.27
2018-03-28T13:44:27.186Z,4.60
2018-03-28T13:46:56.499Z,4.77
2018-03-28T13:49:25.698Z,4.20
2018-03-28T13:51:54.867Z,4.30
2018-03-28T13:54:24.867Z,4.53
2018-03-28T13:56:54.121Z,4.40
2018-03-28T13:59:23.362Z,4.43
2018-03-28T14:01:52.584Z,3.77
2018-03-28T14:04:21.835Z,4.27
2018-03-28T14:06:51.057Z,3.47
2018-03-28T14:09:20.249Z,4.13
2018-03-28T14:11:49.494Z,3.63
2018-03-28T14:14:18.745Z,3.93
2018-03-28T14:16:47.948Z,3.87
2018-03-28T14:19:17.218Z,4.00
2018-03-28T14:21:46.533Z,3.90
2018-03-28T14:24:15.662Z,4.20
2018-03-28T14:26:45.095Z,3.97
2018-03-28T14:29:14.300Z,4.00
2018-03-28T14:31:43.506Z,3.93
2018-03-28T14:34:12.672Z,3.97
2018-03-28T14:36:41.897Z,4.10
2018-03-28T14:39:11.871Z,4.10
2018-03-28T14:41:41.070Z,4.30
2018-03-28T14:44:10.249Z,3.90
2018-03-28T14:46:39.488Z,4.43
2018-03-28T14:49:08.728Z,4.13
2018-03-28T14:51:37.910Z,4.63
2018-03-28T14:54:07.235Z,4.63
2018-03-28T14:56:36.543Z,4.67
2018-03-28T14:59:17.844Z,4.10
2018-03-28T15:01:46.991Z,4.53
2018-03-28T15:04:16.254Z,4.53
2018-03-28T15:06:45.569Z,4.30
2018-03-28T15:09:14.780Z,4.37
2018-03-28T15:11:45.499Z,4.40
2018-03-28T15:14:14.717Z,4.47
2018-03-28T15:16:43.955Z,4.90
2018-03-28T15:19:13.164Z,5.03
2018-03-28T15:21:42.334Z,4.47
2018-03-28T15:24:12.268Z,5.10
2018-03-28T15:26:41.486Z,4.57
2018-03-28T15:29:10.755Z,4.10
2018-03-28T15:31:40.752Z,4.03
2018-03-28T15:34:09.971Z,4.07
2018-03-28T15:36:39.121Z,3.73
2018-03-28T15:39:08.376Z,3.70
2018-03-28T15:41:37.637Z,3.50
2018-03-28T15:44:06.838Z,3.50
2018-03-28T15:46:36.828Z,3.50
2018-03-28T15:49:06.147Z,3.50
2018-03-28T15:51:35.458Z,3.57
2018-03-28T15:57:07.885Z,3.53
2018-03-28T15:59:37.146Z,3.20
2018-03-28T16:02:07.147Z,4.00
2018-03-28T16:04:36.330Z,3.87
2018-03-28T16:07:05.632Z,3.50
2018-03-28T16:09:34.739Z,4.40
2018-03-28T16:12:04.032Z,3.73
2018-03-28T16:14:52.416Z,4.17
2018-03-28T16:17:27.691Z,4.03
2018-03-28T16:19:56.913Z,4.97
2018-03-28T16:22:37.230Z,5.20
2018-03-28T16:25:07.124Z,5.40
2018-03-28T16:27:36.414Z,4.27
2018-03-28T16:30:05.636Z,6.10
2018-03-28T16:32:35.033Z,5.10
2018-03-28T16:35:04.243Z,4.97
2018-03-28T16:37:33.481Z,5.20
2018-03-28T16:40:02.673Z,6.07
2018-03-28T16:42:42.069Z,4.80
2018-03-28T16:45:35.900Z,6.00
2018-03-28T16:48:05.152Z,5.63
2018-03-28T16:50:38.437Z,6.27
2018-03-28T16:53:24.842Z,6.63
2018-03-28T16:56:08.504Z,6.37
2018-03-28T16:58:37.802Z,7.60
2018-03-28T17:01:07.014Z,7.53
2018-03-28T17:03:36.344Z,7.57
2018-03-28T17:06:05.546Z,7.53
2018-03-28T17:08:34.811Z,7.93
2018-03-28T17:11:04.095Z,8.13
2018-03-28T17:13:49.911Z,8.20
2018-03-28T17:16:19.844Z,8.77
2018-03-28T17:18:49.799Z,7.90
2018-03-28T17:21:18.972Z,8.60
2018-03-28T17:23:49.191Z,8.90
2018-03-28T17:26:18.380Z,8.87
2018-03-28T17:28:47.513Z,9.07
2018-03-28T17:31:16.745Z,9.43
2018-03-28T17:33:46.810Z,9.80
2018-03-28T17:36:16.121Z,9.90
2018-03-28T17:38:45.283Z,10.37
2018-03-28T17:41:14.556Z,9.83
2018-03-28T17:43:43.869Z,10.00
2018-03-28T17:46:13.134Z,9.63
2018-03-28T17:48:43.422Z,9.37
2018-03-28T17:51:12.682Z,10.60
2018-03-28T17:53:42.620Z,9.33
2018-03-28T17:56:11.892Z,10.87
2018-03-28T17:58:41.186Z,9.87
2018-03-28T18:01:10.392Z,9.10
2018-03-28T18:06:55.111Z,10.17
2018-03-28T18:09:26.261Z,8.73
2018-03-28T18:11:55.579Z,8.73
2018-03-28T18:14:24.782Z,8.63
2018-03-28T18:17:14.007Z,8.17
2018-03-28T18:19:43.159Z,8.03
2018-03-28T18:22:12.401Z,8.03
2018-03-28T18:24:41.608Z,7.90
2018-03-28T18:27:10.830Z,7.07
2018-03-28T18:29:40.027Z,6.83
2018-03-28T18:32:24.357Z,6.90
2018-03-28T18:34:53.611Z,7.17
2018-03-28T18:37:22.998Z,6.93
2018-03-28T18:39:52.289Z,6.60
2018-03-28T18:42:22.245Z,5.73
2018-03-28T18:45:15.130Z,5.00
2018-03-28T18:47:45.340Z,4.93
2018-03-28T18:50:14.490Z,5.13
2018-03-28T18:52:43.775Z,5.17
2018-03-28T18:55:13.011Z,5.00
2018-03-28T18:57:42.412Z,4.83
2018-03-28T19:00:11.539Z,5.60
2018-03-28T19:02:40.771Z,5.33
2018-03-28T19:05:10.018Z,5.63
2018-03-28T19:07:39.285Z,5.50
2018-03-28T19:10:08.495Z,5.30
2018-03-28T19:12:38.588Z,5.63
2018-03-28T19:15:07.779Z,5.53
2018-03-28T19:17:36.949Z,5.97
2018-03-28T19:20:06.113Z,6.43
2018-03-28T19:22:35.320Z,6.57
2018-03-28T19:25:04.569Z,7.07
2018-03-28T19:27:33.804Z,6.43
2018-03-28T19:30:03.715Z,7.13
2018-03-28T19:32:32.885Z,8.03
2018-03-28T19:35:02.042Z,7.93
2018-03-28T19:37:31.241Z,8.10
2018-03-28T19:40:00.461Z,9.10
2018-03-28T19:42:30.484Z,8.80
2018-03-28T19:45:00.451Z,9.50
2018-03-28T19:47:29.828Z,9.83
2018-03-28T19:50:00.041Z,9.53
2018-03-28T19:52:29.274Z,7.57
2018-03-28T19:54:58.656Z,7.63
2018-03-28T19:57:27.883Z,8.33
2018-03-28T19:59:57.136Z,8.00
2018-03-28T20:02:27.099Z,8.00
2018-03-28T20:04:56.416Z,7.87
2018-03-28T20:07:25.639Z,7.17
2018-03-28T20:09:55.053Z,5.47
2018-03-28T20:12:24.305Z,5.00
2018-03-28T20:14:54.292Z,4.50
2018-03-28T20:17:23.598Z,3.93
2018-03-28T20:19:52.823Z,3.37
2018-03-28T20:22:22.117Z,3.40
2018-03-28T20:24:51.248Z,3.10
2018-03-28T20:27:20.474Z,2.77
2018-03-28T20:29:49.705Z,2.90
2018-03-28T20:32:19.682Z,2.67
2018-03-28T20:34:48.916Z,2.83
2018-03-28T20:37:18.163Z,2.23
2018-03-28T20:39:47.375Z,2.70
2018-03-28T20:42:17.553Z,2.50
2018-03-28T20:44:46.776Z,2.40
2018-03-28T20:47:16.008Z,2.20
2018-03-28T20:49:46.100Z,2.20
2018-03-28T20:52:15.286Z,2.10
2018-03-28T20:54:44.459Z,1.80
2018-03-28T20:57:13.733Z,2.00
2018-03-28T20:59:43.043Z,1.90
2018-03-28T21:02:12.228Z,1.80
2018-03-28T21:04:41.415Z,2.00
2018-03-28T21:07:10.675Z,2.20
2018-03-28T21:09:39.892Z,2.20
2018-03-28T21:12:09.149Z,2.07
2018-03-28T21:14:39.143Z,2.00
2018-03-28T21:17:09.108Z,2.03
2018-03-28T21:19:38.368Z,1.90
2018-03-28T21:22:07.934Z,2.23
2018-03-28T21:24:37.119Z,2.00
2018-03-28T21:27:06.239Z,2.10
2018-03-28T21:29:36.977Z,2.27
2018-03-28T21:32:06.198Z,3.00
2018-03-28T21:34:35.433Z,2.43
2018-03-28T21:37:04.643Z,2.50
2018-03-28T21:39:33.851Z,3.07
2018-03-28T21:42:03.042Z,2.80
2018-03-28T21:44:32.220Z,2.93
2018-03-28T21:47:01.431Z,3.20
2018-03-28T21:49:48.555Z,3.33
2018-03-28T21:52:17.804Z,3.37
2018-03-28T21:54:47.085Z,3.57
2018-03-28T21:57:16.285Z,3.27
2018-03-28T21:59:45.537Z,3.53
2018-03-28T22:02:14.720Z,3.50
2018-03-28T22:04:43.945Z,3.77
2018-03-28T22:07:13.124Z,3.70
2018-03-28T22:09:42.301Z,3.70
2018-03-28T22:12:11.492Z,3.53
2018-03-28T22:14:40.671Z,3.40
2018-03-28T22:17:09.803Z,3.67
2018-03-28T22:19:38.972Z,3.60
2018-03-28T22:22:08.175Z,4.00
2018-03-28T22:24:37.381Z,3.60
2018-03-28T22:27:06.592Z,3.90
2018-03-28T22:29:35.932Z,3.63
2018-03-28T22:32:05.124Z,3.80
2018-03-28T22:34:35.205Z,3.97
2018-03-28T22:37:04.486Z,4.00
2018-03-28T22:39:33.689Z,4.10
2018-03-28T22:42:03.011Z,4.23
2018-03-28T22:44:32.218Z,3.83
2018-03-28T22:47:01.428Z,4.00
2018-03-28T22:49:30.709Z,4.10
2018-03-28T22:51:59.912Z,4.40
2018-03-28T22:54:29.866Z,4.30
2018-03-28T22:56:59.092Z,4.30
2018-03-28T22:59:28.277Z,4.23
2018-03-28T23:01:58.262Z,4.20
2018-03-28T23:04:27.744Z,3.80
2018-03-28T23:06:56.962Z,4.23
2018-03-28T23:09:26.270Z,3.90
2018-03-28T23:11:55.478Z,4.00
2018-03-28T23:14:24.731Z,3.90
2018-03-28T23:16:53.932Z,4.07
2018-03-28T23:19:23.102Z,4.30
2018-03-28T23:21:52.252Z,3.70
2018-03-28T23:24:21.469Z,3.80
2018-03-28T23:26:51.509Z,3.87
2018-03-28T23:29:20.878Z,3.60
2018-03-28T23:31:50.096Z,3.53
2018-03-28T23:34:19.378Z,3.87
2018-03-28T23:36:48.610Z,4.03
2018-03-28T23:39:17.775Z,3.83
2018-03-28T23:41:46.991Z,4.00
2018-03-28T23:44:17.064Z,3.90
2018-03-28T23:46:46.254Z,4.07
2018-03-28T23:49:15.431Z,4.40
2018-03-28T23:51:44.705Z,4.03
2018-03-28T23:54:13.903Z,3.97
2018-03-28T23:56:43.061Z,4.07
2018-03-28T23:59:12.352Z,4.40
